createdAt,value
2023-02-13T00:00:28.651Z,5.71
2023-02-13T00:15:18.296Z,5.57
2023-02-13T00:30:11.439Z,5.48
2023-02-13T00:45:04.179Z,5.31
2023-02-13T00:59:55.185Z,5.14
2023-02-13T01:14:47.055Z,5.06
2023-02-13T01:29:38.973Z,4.90
2023-02-13T01:44:48.434Z,4.69
2023-02-13T01:59:44.322Z,4.65
2023-02-13T02:14:37.934Z,4.55
2023-02-13T02:29:49.814Z,4.29
2023-02-13T02:44:52.256Z,4.23
2023-02-13T03:00:03.311Z,4.11
2023-02-13T03:15:01.636Z,4.13
2023-02-13T03:30:08.616Z,4.03
2023-02-13T03:45:21.302Z,3.97
2023-02-13T04:00:28.368Z,3.77
2023-02-13T04:15:28.983Z,3.76
2023-02-13T04:30:24.096Z,3.73
2023-02-13T04:45:15.992Z,3.56
2023-02-13T05:00:09.809Z,3.41
2023-02-13T05:29:53.682Z,3.26
2023-02-13T05:44:46.585Z,3.22
2023-02-13T05:59:39.524Z,3.00
2023-02-13T06:14:32.229Z,2.95
2023-02-13T06:29:23.152Z,2.72
2023-02-13T06:44:12.956Z,2.70
2023-02-13T06:59:04.975Z,2.86
2023-02-13T07:13:57.359Z,2.81
2023-02-13T07:28:59.452Z,2.98
2023-02-13T07:58:34.119Z,3.08
2023-02-13T08:13:27.150Z,3.43
2023-02-13T08:28:22.121Z,3.75
2023-02-13T08:43:15.060Z,4.01
2023-02-13T08:58:07.994Z,4.34
2023-02-13T09:13:01.821Z,4.62
2023-02-13T09:27:54.637Z,4.76
2023-02-13T09:42:46.531Z,4.55
2023-02-13T09:57:37.412Z,4.47
2023-02-13T10:27:41.868Z,4.69
2023-02-13T10:42:34.239Z,4.92
2023-02-13T10:58:02.523Z,5.50
2023-02-13T11:13:01.719Z,5.97
2023-02-13T11:27:53.603Z,6.34
2023-02-13T11:42:46.420Z,6.79
2023-02-13T11:57:38.320Z,7.37
2023-02-13T12:12:30.305Z,7.91
2023-02-13T12:27:54.905Z,8.36
2023-02-13T12:43:12.603Z,8.75
2023-02-13T12:58:19.888Z,9.24
2023-02-13T13:13:25.068Z,9.50
2023-02-13T13:28:22.125Z,9.94
2023-02-13T13:43:20.111Z,10.14
2023-02-13T13:58:33.764Z,10.49
2023-02-13T14:13:31.657Z,10.62
2023-02-13T14:28:25.617Z,10.53
2023-02-13T14:43:30.881Z,10.17
2023-02-13T14:58:30.923Z,9.61
2023-02-13T15:13:29.415Z,9.29
2023-02-13T15:28:21.986Z,9.09
2023-02-13T15:43:35.362Z,8.89
2023-02-13T15:58:32.920Z,8.73
2023-02-13T16:13:25.896Z,8.55
2023-02-13T16:28:25.151Z,8.34
2023-02-13T16:59:06.098Z,7.87
2023-02-13T17:43:43.462Z,7.12
2023-02-13T17:58:35.405Z,6.92
2023-02-13T18:13:28.291Z,6.71
2023-02-13T18:28:18.636Z,6.54
2023-02-13T18:43:10.637Z,6.38
2023-02-13T18:58:01.058Z,6.25
2023-02-13T19:12:52.433Z,6.09
2023-02-13T19:27:43.055Z,5.94
2023-02-13T19:42:33.249Z,5.68
2023-02-13T19:57:24.054Z,5.45
2023-02-13T20:12:14.157Z,5.22
2023-02-13T20:27:06.326Z,4.98
2023-02-13T20:41:59.482Z,4.83
2023-02-13T20:56:51.572Z,4.51
2023-02-13T21:11:40.263Z,3.75
2023-02-13T21:26:30.085Z,3.27
2023-02-13T21:41:22.020Z,2.96
2023-02-13T21:56:14.044Z,2.65
2023-02-13T22:11:04.465Z,2.28
2023-02-13T22:25:57.334Z,2.25
2023-02-13T22:40:51.384Z,2.08
2023-02-13T22:55:48.127Z,2.09
2023-02-13T23:10:36.307Z,2.05
2023-02-13T23:25:30.313Z,2.08
2023-02-13T23:40:22.326Z,2.00
2023-02-13T23:55:14.189Z,2.09
